sensor_id;sensor_type;location;lat;lon;timestamp;pressure;altitude;pressure_sealevel;temperature;humidity
46614;BME280;32338;50.430;6.806;2023-06-10T00:02:05;67239.38;;;16.68;100.00
46614;BME280;32338;50.430;6.806;2023-06-10T00:04:33;67241.25;;;16.65;100.00
46614;BME280;32338;50.430;6.806;2023-06-10T00:06:59;67230.88;;;16.60;100.00
46614;BME280;32338;50.430;6.806;2023-06-10T00:09:26;67242.00;;;16.68;100.00
46614;BME280;32338;50.430;6.806;2023-06-10T00:11:54;67237.84;;;16.69;100.00
46614;BME280;32338;50.430;6.806;2023-06-10T00:14:25;67243.69;;;16.69;100.00
46614;BME280;32338;50.430;6.806;2023-06-10T00:16:51;67247.66;;;16.73;100.00
46614;BME280;32338;50.430;6.806;2023-06-10T00:19:18;67244.84;;;16.70;100.00
46614;BME280;32338;50.430;6.806;2023-06-10T00:21:44;67237.09;;;16.66;100.00
46614;BME280;32338;50.430;6.806;2023-06-10T00:24:11;67235.59;;;16.60;100.00
46614;BME280;32338;50.430;6.806;2023-06-10T00:26:38;67229.72;;;16.59;100.00
46614;BME280;32338;50.430;6.806;2023-06-10T00:29:06;67230.88;;;16.60;100.00
46614;BME280;32338;50.430;6.806;2023-06-10T00:31:33;67236.34;;;16.63;100.00
46614;BME280;32338;50.430;6.806;2023-06-10T00:34:00;67234.25;;;16.63;100.00
46614;BME280;32338;50.430;6.806;2023-06-10T00:36:27;67232.94;;;16.60;100.00
46614;BME280;32338;50.430;6.806;2023-06-10T00:38:54;67234.06;;;16.61;100.00
46614;BME280;32338;50.430;6.806;2023-06-10T00:41:20;67232.56;;;16.62;100.00
46614;BME280;32338;50.430;6.806;2023-06-10T00:43:47;67228.97;;;16.56;100.00
46614;BME280;32338;50.430;6.806;2023-06-10T00:46:15;67231.25;;;16.58;100.00
46614;BME280;32338;50.430;6.806;2023-06-10T00:48:43;67220.09;;;16.50;100.00
46614;BME280;32338;50.430;6.806;2023-06-10T00:51:10;67215.59;;;16.46;100.00
46614;BME280;32338;50.430;6.806;2023-06-10T00:53:39;67221.06;;;16.49;100.00
46614;BME280;32338;50.430;6.806;2023-06-10T00:56:07;67235.03;;;16.66;100.00
46614;BME280;32338;50.430;6.806;2023-06-10T00:58:34;67231.81;;;16.59;100.00
46614;BME280;32338;50.430;6.806;2023-06-10T01:01:01;67231.63;;;16.56;100.00
46614;BME280;32338;50.430;6.806;2023-06-10T01:03:30;67221.81;;;16.52;100.00
46614;BME280;32338;50.430;6.806;2023-06-10T01:06:07;67215.59;;;16.46;100.00
46614;BME280;32338;50.430;6.806;2023-06-10T01:08:40;67215.19;;;16.48;100.00
46614;BME280;32338;50.430;6.806;2023-06-10T01:11:17;67217.84;;;16.48;100.00
46614;BME280;32338;50.430;6.806;2023-06-10T01:13:47;67223.13;;;16.48;100.00
46614;BME280;32338;50.430;6.806;2023-06-10T01:16:17;67216.13;;;16.47;100.00
46614;BME280;32338;50.430;6.806;2023-06-10T01:18:45;67219.34;;;16.47;100.00
46614;BME280;32338;50.430;6.806;2023-06-10T01:21:19;67213.50;;;16.40;100.00
46614;BME280;32338;50.430;6.806;2023-06-10T01:23:45;67207.06;;;16.38;100.00
46614;BME280;32338;50.430;6.806;2023-06-10T01:26:12;67206.72;;;16.33;100.00
46614;BME280;32338;50.430;6.806;2023-06-10T01:28:44;67201.63;;;16.29;100.00
46614;BME280;32338;50.430;6.806;2023-06-10T01:31:17;67189.53;;;16.23;100.00
46614;BME280;32338;50.430;6.806;2023-06-10T01:33:47;67179.91;;;16.14;100.00
46614;BME280;32338;50.430;6.806;2023-06-10T01:36:18;67179.16;;;16.11;100.00
46614;BME280;32338;50.430;6.806;2023-06-10T01:38:47;67188.97;;;16.15;100.00
46614;BME280;32338;50.430;6.806;2023-06-10T01:41:16;67187.09;;;16.18;100.00
46614;BME280;32338;50.430;6.806;2023-06-10T01:43:44;67189.16;;;16.25;100.00
46614;BME280;32338;50.430;6.806;2023-06-10T01:46:11;67183.13;;;16.14;100.00
46614;BME280;32338;50.430;6.806;2023-06-10T01:48:38;67177.47;;;16.09;100.00
46614;BME280;32338;50.430;6.806;2023-06-10T01:51:05;67172.53;;;16.07;100.00
46614;BME280;32338;50.430;6.806;2023-06-10T01:53:33;67176.50;;;16.03;100.00
46614;BME280;32338;50.430;6.806;2023-06-10T01:56:00;67168.78;;;15.99;100.00
46614;BME280;32338;50.430;6.806;2023-06-10T01:58:26;67160.50;;;15.94;100.00
46614;BME280;32338;50.430;6.806;2023-06-10T02:00:53;67161.03;;;15.94;100.00
46614;BME280;32338;50.430;6.806;2023-06-10T02:03:20;67172.53;;;16.07;100.00
46614;BME280;32338;50.430;6.806;2023-06-10T02:05:46;67171.22;;;16.03;100.00
46614;BME280;32338;50.430;6.806;2023-06-10T02:08:13;67163.50;;;15.99;100.00
46614;BME280;32338;50.430;6.806;2023-06-10T02:10:41;67168.22;;;15.98;100.00
46614;BME280;32338;50.430;6.806;2023-06-10T02:13:08;67166.16;;;15.99;100.00
46614;BME280;32338;50.430;6.806;2023-06-10T02:15:34;67167.84;;;16.00;100.00
46614;BME280;32338;50.430;6.806;2023-06-10T02:18:01;67180.84;;;16.12;100.00
46614;BME280;32338;50.430;6.806;2023-06-10T02:20:28;67178.03;;;16.10;100.00
46614;BME280;32338;50.430;6.806;2023-06-10T02:22:54;67173.31;;;16.03;100.00
46614;BME280;32338;50.430;6.806;2023-06-10T02:25:21;67162.75;;;15.96;100.00
46614;BME280;32338;50.430;6.806;2023-06-10T02:27:49;67165.00;;;15.98;100.00
46614;BME280;32338;50.430;6.806;2023-06-10T02:30:15;67158.78;;;15.92;100.00
46614;BME280;32338;50.430;6.806;2023-06-10T02:32:42;67163.13;;;15.94;100.00
46614;BME280;32338;50.430;6.806;2023-06-10T02:35:12;67158.59;;;15.89;100.00
46614;BME280;32338;50.430;6.806;2023-06-10T02:37:39;67148.41;;;15.87;100.00
46614;BME280;32338;50.430;6.806;2023-06-10T02:40:07;67149.34;;;15.86;100.00
46614;BME280;32338;50.430;6.806;2023-06-10T02:42:33;67146.50;;;15.83;100.00
46614;BME280;32338;50.430;6.806;2023-06-10T02:45:01;67143.66;;;15.81;100.00
46614;BME280;32338;50.430;6.806;2023-06-10T02:47:28;67151.78;;;15.83;100.00
46614;BME280;32338;50.430;6.806;2023-06-10T02:49:54;67140.28;;;15.78;100.00
46614;BME280;32338;50.430;6.806;2023-06-10T02:52:21;67143.47;;;15.78;100.00
46614;BME280;32338;50.430;6.806;2023-06-10T02:54:48;67137.63;;;15.70;100.00
46614;BME280;32338;50.430;6.806;2023-06-10T02:57:14;67133.09;;;15.66;100.00
46614;BME280;32338;50.430;6.806;2023-06-10T02:59:41;67124.59;;;15.66;100.00
46614;BME280;32338;50.430;6.806;2023-06-10T03:02:10;67128.19;;;15.64;100.00
46614;BME280;32338;50.430;6.806;2023-06-10T03:04:37;67128.19;;;15.64;100.00
46614;BME280;32338;50.430;6.806;2023-06-10T03:07:04;67126.50;;;15.63;100.00
46614;BME280;32338;50.430;6.806;2023-06-10T03:09:32;67123.09;;;15.60;100.00
46614;BME280;32338;50.430;6.806;2023-06-10T03:11:59;67125.38;;;15.62;100.00
46614;BME280;32338;50.430;6.806;2023-06-10T03:14:27;67118.75;;;15.58;100.00
46614;BME280;32338;50.430;6.806;2023-06-10T03:16:53;67123.69;;;15.60;100.00
46614;BME280;32338;50.430;6.806;2023-06-10T03:19:22;67119.72;;;15.56;100.00
46614;BME280;32338;50.430;6.806;2023-06-10T03:21:50;67115.19;;;15.52;100.00
46614;BME280;32338;50.430;6.806;2023-06-10T03:24:21;67097.84;;;15.39;100.00
46614;BME280;32338;50.430;6.806;2023-06-10T03:26:47;67093.69;;;15.33;100.00
46614;BME280;32338;50.430;6.806;2023-06-10T03:29:14;67089.34;;;15.31;100.00
46614;BME280;32338;50.430;6.806;2023-06-10T03:31:40;67086.34;;;15.26;100.00
46614;BME280;32338;50.430;6.806;2023-06-10T03:34:07;67087.44;;;15.27;100.00
46614;BME280;32338;50.430;6.806;2023-06-10T03:36:35;67084.63;;;15.24;100.00
46614;BME280;32338;50.430;6.806;2023-06-10T03:39:02;67079.34;;;15.24;100.00
46614;BME280;32338;50.430;6.806;2023-06-10T03:41:30;67081.44;;;15.24;100.00
46614;BME280;32338;50.430;6.806;2023-06-10T03:43:57;67079.16;;;15.22;100.00
46614;BME280;32338;50.430;6.806;2023-06-10T03:46:23;67079.16;;;15.22;100.00
46614;BME280;32338;50.430;6.806;2023-06-10T03:48:50;67076.50;;;15.22;100.00
46614;BME280;32338;50.430;6.806;2023-06-10T03:51:17;67074.63;;;15.18;100.00
46614;BME280;32338;50.430;6.806;2023-06-10T03:53:45;67070.13;;;15.14;100.00
46614;BME280;32338;50.430;6.806;2023-06-10T03:56:11;67072.19;;;15.13;100.00
46614;BME280;32338;50.430;6.806;2023-06-10T03:58:38;67069.34;;;15.11;100.00
46614;BME280;32338;50.430;6.806;2023-06-10T04:01:05;67066.53;;;15.08;100.00
46614;BME280;32338;50.430;6.806;2023-06-10T04:03:32;67062.00;;;15.04;100.00
46614;BME280;32338;50.430;6.806;2023-06-10T04:05:59;67058.06;;;15.00;100.00
46614;BME280;32338;50.430;6.806;2023-06-10T04:08:25;67060.88;;;15.03;100.00
46614;BME280;32338;50.430;6.806;2023-06-10T04:10:53;67050.13;;;14.93;100.00
46614;BME280;32338;50.430;6.806;2023-06-10T04:13:20;67044.66;;;14.90;100.00
46614;BME280;32338;50.430;6.806;2023-06-10T04:15:46;67045.59;;;14.89;100.00
46614;BME280;32338;50.430;6.806;2023-06-10T04:18:13;67042.19;;;14.86;100.00
46614;BME280;32338;50.430;6.806;2023-06-10T04:20:40;67042.19;;;14.86;100.00
46614;BME280;32338;50.430;6.806;2023-06-10T04:23:07;67041.66;;;14.85;100.00
46614;BME280;32338;50.430;6.806;2023-06-10T04:25:33;67037.69;;;14.82;100.00
46614;BME280;32338;50.430;6.806;2023-06-10T04:28:01;67043.72;;;14.85;100.00
46614;BME280;32338;50.430;6.806;2023-06-10T04:30:28;67041.66;;;14.85;100.00
46614;BME280;32338;50.430;6.806;2023-06-10T04:32:56;67041.09;;;14.85;100.00
46614;BME280;32338;50.430;6.806;2023-06-10T04:35:23;67032.41;;;14.82;100.00
46614;BME280;32338;50.430;6.806;2023-06-10T04:37:52;67041.84;;;14.88;100.00
46614;BME280;32338;50.430;6.806;2023-06-10T04:40:18;67043.91;;;14.87;100.00
46614;BME280;32338;50.430;6.806;2023-06-10T04:42:45;67049.19;;;14.87;100.00
46614;BME280;32338;50.430;6.806;2023-06-10T04:45:13;67044.47;;;14.88;100.00
46614;BME280;32338;50.430;6.806;2023-06-10T04:47:40;67043.53;;;14.89;100.00
46614;BME280;32338;50.430;6.806;2023-06-10T04:50:07;67052.22;;;14.93;100.00
46614;BME280;32338;50.430;6.806;2023-06-10T04:52:34;67052.41;;;14.95;100.00
46614;BME280;32338;50.430;6.806;2023-06-10T04:55:00;67059.00;;;14.99;100.00
46614;BME280;32338;50.430;6.806;2023-06-10T04:57:27;67065.97;;;15.07;100.00
46614;BME280;32338;50.430;6.806;2023-06-10T04:59:53;67060.88;;;15.03;100.00
46614;BME280;32338;50.430;6.806;2023-06-10T05:02:21;67064.25;;;15.06;100.00
46614;BME280;32338;50.430;6.806;2023-06-10T05:04:48;67064.25;;;15.06;100.00
46614;BME280;32338;50.430;6.806;2023-06-10T05:07:15;67068.41;;;15.12;100.00
46614;BME280;32338;50.430;6.806;2023-06-10T05:09:42;67079.38;;;15.17;100.00
46614;BME280;32338;50.430;6.806;2023-06-10T05:12:09;67073.50;;;15.17;100.00
46614;BME280;32338;50.430;6.806;2023-06-10T05:14:35;67078.78;;;15.17;100.00
46614;BME280;32338;50.430;6.806;2023-06-10T05:17:02;67080.09;;;15.20;100.00
46614;BME280;32338;50.430;6.806;2023-06-10T05:19:32;67081.81;;;15.22;100.00
46614;BME280;32338;50.430;6.806;2023-06-10T05:21:59;67084.63;;;15.24;100.00
46614;BME280;32338;50.430;6.806;2023-06-10T05:24:25;67091.81;;;15.29;100.00
46614;BME280;32338;50.430;6.806;2023-06-10T05:26:53;67099.34;;;15.38;100.00
46614;BME280;32338;50.430;6.806;2023-06-10T05:29:19;67117.63;;;15.57;100.00
46614;BME280;32338;50.430;6.806;2023-06-10T05:31:46;67130.84;;;15.64;100.00
46614;BME280;32338;50.430;6.806;2023-06-10T05:34:12;67136.13;;;15.71;100.00
46614;BME280;32338;50.430;6.806;2023-06-10T05:36:40;67144.44;;;15.77;100.00
46614;BME280;32338;50.430;6.806;2023-06-10T05:39:07;67137.63;;;15.78;100.00
46614;BME280;32338;50.430;6.806;2023-06-10T05:41:33;67147.47;;;15.82;100.00
46614;BME280;32338;50.430;6.806;2023-06-10T05:44:00;67157.63;;;15.91;100.00
46614;BME280;32338;50.430;6.806;2023-06-10T05:46:26;67164.25;;;15.95;100.00
46614;BME280;32338;50.430;6.806;2023-06-10T05:48:53;67166.69;;;15.99;100.00
46614;BME280;32338;50.430;6.806;2023-06-10T05:51:20;67172.19;;;16.02;100.00
46614;BME280;32338;50.430;6.806;2023-06-10T05:53:48;67182.16;;;16.09;100.00
46614;BME280;32338;50.430;6.806;2023-06-10T05:56:14;67179.53;;;16.09;100.00
46614;BME280;32338;50.430;6.806;2023-06-10T05:58:41;67180.28;;;16.12;100.00
46614;BME280;32338;50.430;6.806;2023-06-10T06:01:07;67184.44;;;16.18;100.00
46614;BME280;32338;50.430;6.806;2023-06-10T06:03:34;67196.72;;;16.27;100.00
46614;BME280;32338;50.430;6.806;2023-06-10T06:06:01;67203.09;;;16.35;100.00
46614;BME280;32338;50.430;6.806;2023-06-10T06:08:27;67212.56;;;16.41;100.00
46614;BME280;32338;50.430;6.806;2023-06-10T06:10:55;67217.09;;;16.45;100.00
46614;BME280;32338;50.430;6.806;2023-06-10T06:13:22;67222.94;;;16.53;100.00
46614;BME280;32338;50.430;6.806;2023-06-10T06:15:48;67225.78;;;16.56;100.00
46614;BME280;32338;50.430;6.806;2023-06-10T06:18:15;67239.00;;;16.63;100.00
46614;BME280;32338;50.430;6.806;2023-06-10T06:20:43;67237.84;;;16.69;100.00
46614;BME280;32338;50.430;6.806;2023-06-10T06:23:10;67252.19;;;16.77;100.00
46614;BME280;32338;50.430;6.806;2023-06-10T06:25:37;67261.81;;;16.86;100.00
46614;BME280;32338;50.430;6.806;2023-06-10T06:28:05;67267.69;;;16.94;100.00
46614;BME280;32338;50.430;6.806;2023-06-10T06:30:32;67272.41;;;17.00;100.00
46614;BME280;32338;50.430;6.806;2023-06-10T06:32:58;67289.41;;;17.09;100.00
46614;BME280;32338;50.430;6.806;2023-06-10T06:35:25;67298.66;;;17.20;100.00
46614;BME280;32338;50.430;6.806;2023-06-10T06:37:52;67304.91;;;17.25;100.00
46614;BME280;32338;50.430;6.806;2023-06-10T06:42:12;67322.66;;;17.44;100.00
46614;BME280;32338;50.430;6.806;2023-06-10T06:44:38;67338.16;;;17.53;100.00
46614;BME280;32338;50.430;6.806;2023-06-10T06:47:05;67341.91;;;17.61;100.00
46614;BME280;32338;50.430;6.806;2023-06-10T06:49:32;67361.41;;;17.74;100.00
46614;BME280;32338;50.430;6.806;2023-06-10T06:51:59;67372.53;;;17.89;100.00
46614;BME280;32338;50.430;6.806;2023-06-10T06:54:25;67383.72;;;17.97;100.00
46614;BME280;32338;50.430;6.806;2023-06-10T06:56:52;67394.66;;;18.09;100.00
46614;BME280;32338;50.430;6.806;2023-06-10T06:59:20;67405.63;;;18.14;100.00
46614;BME280;32338;50.430;6.806;2023-06-10T07:01:46;67409.78;;;18.21;100.00
46614;BME280;32338;50.430;6.806;2023-06-10T07:04:15;67416.03;;;18.26;100.00
46614;BME280;32338;50.430;6.806;2023-06-10T07:06:41;67416.78;;;18.29;100.00
46614;BME280;32338;50.430;6.806;2023-06-10T07:09:08;67430.22;;;18.39;100.00
46614;BME280;32338;50.430;6.806;2023-06-10T07:11:35;67436.63;;;18.47;100.00
46614;BME280;32338;50.430;6.806;2023-06-10T07:14:01;67438.72;;;18.47;100.00
46614;BME280;32338;50.430;6.806;2023-06-10T07:16:29;67448.91;;;18.56;100.00
46614;BME280;32338;50.430;6.806;2023-06-10T07:18:56;67465.75;;;18.69;100.00
46614;BME280;32338;50.430;6.806;2023-06-10T07:21:22;67481.63;;;18.84;100.00
46614;BME280;32338;50.430;6.806;2023-06-10T07:23:49;67502.44;;;19.07;100.00
46614;BME280;32338;50.430;6.806;2023-06-10T07:26:19;67510.94;;;19.15;100.00
46614;BME280;32338;50.430;6.806;2023-06-10T07:28:45;67522.28;;;19.25;100.00
46614;BME280;32338;50.430;6.806;2023-06-10T07:31:12;67535.19;;;19.35;100.00
46614;BME280;32338;50.430;6.806;2023-06-10T07:33:39;67548.44;;;19.42;100.00
46614;BME280;32338;50.430;6.806;2023-06-10T07:36:07;67548.03;;;19.44;100.00
46614;BME280;32338;50.430;6.806;2023-06-10T07:38:33;67557.69;;;19.53;100.00
46614;BME280;32338;50.430;6.806;2023-06-10T07:41:00;67562.78;;;19.65;100.00
46614;BME280;32338;50.430;6.806;2023-06-10T07:43:26;67575.28;;;19.76;100.00
46614;BME280;32338;50.430;6.806;2023-06-10T07:45:53;67594.06;;;19.86;100.00
46614;BME280;32338;50.430;6.806;2023-06-10T07:48:19;67593.84;;;19.90;100.00
46614;BME280;32338;50.430;6.806;2023-06-10T07:50:47;67613.38;;;20.03;100.00
46614;BME280;32338;50.430;6.806;2023-06-10T07:53:14;67619.22;;;20.11;100.00
46614;BME280;32338;50.430;6.806;2023-06-10T07:55:40;67627.75;;;20.19;100.00
46614;BME280;32338;50.430;6.806;2023-06-10T07:58:07;67636.44;;;20.29;100.00
46614;BME280;32338;50.430;6.806;2023-06-10T08:00:34;67662.22;;;20.48;100.00
46614;BME280;32338;50.430;6.806;2023-06-10T08:03:00;67667.50;;;20.55;100.00
46614;BME280;32338;50.430;6.806;2023-06-10T08:05:27;67680.16;;;20.69;100.00
46614;BME280;32338;50.430;6.806;2023-06-10T08:07:55;67692.13;;;20.80;100.00
46614;BME280;32338;50.430;6.806;2023-06-10T08:10:22;67701.44;;;20.83;100.00
46614;BME280;32338;50.430;6.806;2023-06-10T08:12:48;67700.66;;;20.87;100.00
46614;BME280;32338;50.430;6.806;2023-06-10T08:15:15;67715.25;;;20.98;100.00
46614;BME280;32338;50.430;6.806;2023-06-10T08:17:41;67732.28;;;21.14;100.00
46614;BME280;32338;50.430;6.806;2023-06-10T08:20:08;67746.66;;;21.29;100.00
46614;BME280;32338;50.430;6.806;2023-06-10T08:22:35;67756.34;;;21.38;100.00
46614;BME280;32338;50.430;6.806;2023-06-10T08:25:04;67775.50;;;21.53;100.00
46614;BME280;32338;50.430;6.806;2023-06-10T08:27:30;67777.00;;;21.59;100.00
46614;BME280;32338;50.430;6.806;2023-06-10T08:29:57;67793.88;;;21.72;100.00
46614;BME280;32338;50.430;6.806;2023-06-10T08:32:25;67805.81;;;21.83;100.00
46614;BME280;32338;50.430;6.806;2023-06-10T08:34:52;67818.50;;;21.97;100.00
46614;BME280;32338;50.430;6.806;2023-06-10T08:37:18;67829.53;;;22.02;100.00
46614;BME280;32338;50.430;6.806;2023-06-10T08:39:45;67844.50;;;22.18;100.00
46614;BME280;32338;50.430;6.806;2023-06-10T08:42:19;67856.50;;;22.22;95.06
46614;BME280;32338;50.430;6.806;2023-06-10T08:44:47;67857.97;;;22.28;95.00
46614;BME280;32338;50.430;6.806;2023-06-10T08:47:16;67863.09;;;22.32;98.49
46614;BME280;32338;50.430;6.806;2023-06-10T08:49:45;67875.22;;;22.46;94.49
46614;BME280;32338;50.430;6.806;2023-06-10T08:52:15;67888.88;;;22.58;99.28
46614;BME280;32338;50.430;6.806;2023-06-10T08:54:43;67904.06;;;22.70;97.23
46614;BME280;32338;50.430;6.806;2023-06-10T08:57:10;67909.19;;;22.74;97.25
46614;BME280;32338;50.430;6.806;2023-06-10T08:59:39;67919.63;;;22.86;89.18
46614;BME280;32338;50.430;6.806;2023-06-10T09:02:07;67927.19;;;22.95;87.83
46614;BME280;32338;50.430;6.806;2023-06-10T09:04:35;67928.16;;;22.94;87.54
46614;BME280;32338;50.430;6.806;2023-06-10T09:07:04;67943.56;;;23.00;89.00
46614;BME280;32338;50.430;6.806;2023-06-10T09:09:31;67945.78;;;23.10;88.72
46614;BME280;32338;50.430;6.806;2023-06-10T09:11:58;67950.53;;;23.17;86.76
46614;BME280;32338;50.430;6.806;2023-06-10T09:14:25;67970.16;;;23.22;83.78
46614;BME280;32338;50.430;6.806;2023-06-10T09:16:53;67978.41;;;23.42;91.27
46614;BME280;32338;50.430;6.806;2023-06-10T09:19:23;67993.06;;;23.53;78.31
46614;BME280;32338;50.430;6.806;2023-06-10T09:21:49;67995.50;;;23.57;77.52
46614;BME280;32338;50.430;6.806;2023-06-10T09:24:16;67989.78;;;23.52;81.32
46614;BME280;32338;50.430;6.806;2023-06-10T09:26:43;67984.53;;;23.45;86.46
46614;BME280;32338;50.430;6.806;2023-06-10T09:29:11;67997.59;;;23.57;78.60
46614;BME280;32338;50.430;6.806;2023-06-10T09:31:38;68016.47;;;23.67;71.97
46614;BME280;32338;50.430;6.806;2023-06-10T09:34:08;68012.97;;;23.71;71.59
46614;BME280;32338;50.430;6.806;2023-06-10T09:36:36;68027.63;;;23.82;79.45
46614;BME280;32338;50.430;6.806;2023-06-10T09:39:03;68044.72;;;23.97;72.71
46614;BME280;32338;50.430;6.806;2023-06-10T09:41:33;68048.88;;;24.03;73.29
46614;BME280;32338;50.430;6.806;2023-06-10T09:44:00;68060.84;;;24.14;74.16
46614;BME280;32338;50.430;6.806;2023-06-10T09:46:30;68080.59;;;24.29;70.84
46614;BME280;32338;50.430;6.806;2023-06-10T09:48:58;68080.78;;;24.32;63.88
46614;BME280;32338;50.430;6.806;2023-06-10T09:51:26;68090.28;;;24.38;69.87
46614;BME280;32338;50.430;6.806;2023-06-10T09:53:53;68089.72;;;24.38;69.96
46614;BME280;32338;50.430;6.806;2023-06-10T09:56:20;68095.81;;;24.41;64.41
46614;BME280;32338;50.430;6.806;2023-06-10T09:58:52;68096.16;;;24.46;66.89
46614;BME280;32338;50.430;6.806;2023-06-10T10:01:19;68112.84;;;24.64;67.50
46614;BME280;32338;50.430;6.806;2023-06-10T10:03:47;68134.59;;;24.76;64.31
46614;BME280;32338;50.430;6.806;2023-06-10T10:06:14;68119.13;;;24.69;65.93
46614;BME280;32338;50.430;6.806;2023-06-10T10:08:43;68122.38;;;24.70;66.56
46614;BME280;32338;50.430;6.806;2023-06-10T10:11:11;68120.69;;;24.68;63.11
46614;BME280;32338;50.430;6.806;2023-06-10T10:13:38;68132.47;;;24.76;64.12
46614;BME280;32338;50.430;6.806;2023-06-10T10:16:09;68145.56;;;24.88;65.38
46614;BME280;32338;50.430;6.806;2023-06-10T10:18:40;68130.69;;;24.82;55.48
46614;BME280;32338;50.430;6.806;2023-06-10T10:21:11;68135.66;;;24.84;58.18
46614;BME280;32338;50.430;6.806;2023-06-10T10:23:47;68135.34;;;24.79;55.71
46614;BME280;32338;50.430;6.806;2023-06-10T10:26:16;68146.88;;;24.92;59.83
46614;BME280;32338;50.430;6.806;2023-06-10T10:28:45;68152.34;;;25.02;57.11
46614;BME280;32338;50.430;6.806;2023-06-10T10:31:18;68160.00;;;25.04;52.95
46614;BME280;32338;50.430;6.806;2023-06-10T10:33:51;68166.66;;;25.07;54.31
46614;BME280;32338;50.430;6.806;2023-06-10T10:36:21;68173.09;;;25.16;55.82
46614;BME280;32338;50.430;6.806;2023-06-10T10:38:50;68176.19;;;25.14;53.12
46614;BME280;32338;50.430;6.806;2023-06-10T10:41:18;68188.34;;;25.27;53.63
46614;BME280;32338;50.430;6.806;2023-06-10T10:43:45;68193.47;;;25.32;56.37
46614;BME280;32338;50.430;6.806;2023-06-10T10:46:14;68192.50;;;25.33;53.29
46614;BME280;32338;50.430;6.806;2023-06-10T10:48:41;68191.34;;;25.32;51.88
46614;BME280;32338;50.430;6.806;2023-06-10T10:51:09;68195.72;;;25.34;51.40
46614;BME280;32338;50.430;6.806;2023-06-10T10:53:37;68202.19;;;25.42;54.03
46614;BME280;32338;50.430;6.806;2023-06-10T10:56:12;68189.88;;;25.26;50.35
46614;BME280;32338;50.430;6.806;2023-06-10T10:58:39;68195.34;;;25.36;56.35
46614;BME280;32338;50.430;6.806;2023-06-10T11:01:15;68212.63;;;25.54;53.51
46614;BME280;32338;50.430;6.806;2023-06-10T11:03:45;68226.72;;;25.64;51.70
46614;BME280;32338;50.430;6.806;2023-06-10T11:06:13;68213.19;;;25.54;52.91
46614;BME280;32338;50.430;6.806;2023-06-10T11:08:46;68225.19;;;25.65;54.09
46614;BME280;32338;50.430;6.806;2023-06-10T11:11:20;68211.34;;;25.50;55.12
46614;BME280;32338;50.430;6.806;2023-06-10T11:14:06;68208.88;;;25.46;50.00
46614;BME280;32338;50.430;6.806;2023-06-10T11:16:39;68201.63;;;25.41;53.46
46614;BME280;32338;50.430;6.806;2023-06-10T11:19:07;68201.06;;;25.41;50.93
46614;BME280;32338;50.430;6.806;2023-06-10T11:21:45;68217.44;;;25.53;49.88
46614;BME280;32338;50.430;6.806;2023-06-10T11:24:23;68208.06;;;25.50;51.95
46614;BME280;32338;50.430;6.806;2023-06-10T11:26:52;68243.41;;;25.82;57.73
46614;BME280;32338;50.430;6.806;2023-06-10T11:29:19;68262.06;;;25.96;52.32
46614;BME280;32338;50.430;6.806;2023-06-10T11:31:49;68283.59;;;26.13;56.70
46614;BME280;32338;50.430;6.806;2023-06-10T11:34:24;68293.31;;;26.22;54.48
46614;BME280;32338;50.430;6.806;2023-06-10T11:36:52;68267.94;;;26.04;51.91
46614;BME280;32338;50.430;6.806;2023-06-10T11:39:20;68267.31;;;26.11;51.66
46614;BME280;32338;50.430;6.806;2023-06-10T11:41:50;68283.59;;;26.13;54.60
46614;BME280;32338;50.430;6.806;2023-06-10T11:44:19;68308.88;;;26.38;53.54
46614;BME280;32338;50.430;6.806;2023-06-10T11:46:48;68281.63;;;26.16;53.20
46614;BME280;32338;50.430;6.806;2023-06-10T11:49:15;68252.78;;;25.85;54.96
46614;BME280;32338;50.430;6.806;2023-06-10T11:51:42;68234.88;;;25.74;54.61
46614;BME280;32338;50.430;6.806;2023-06-10T11:54:14;68250.81;;;25.88;56.60
46614;BME280;32338;50.430;6.806;2023-06-10T11:56:41;68290.78;;;26.25;56.57
46614;BME280;32338;50.430;6.806;2023-06-10T11:59:08;68318.72;;;26.50;59.96
46614;BME280;32338;50.430;6.806;2023-06-10T12:01:37;68342.19;;;26.64;59.03
46614;BME280;32338;50.430;6.806;2023-06-10T12:04:06;68396.59;;;27.15;62.76
46614;BME280;32338;50.430;6.806;2023-06-10T12:06:41;68389.19;;;27.09;54.42
46614;BME280;32338;50.430;6.806;2023-06-10T12:09:14;68373.94;;;26.97;47.97
46614;BME280;32338;50.430;6.806;2023-06-10T12:11:42;68332.41;;;26.62;48.62
46614;BME280;32338;50.430;6.806;2023-06-10T12:14:08;68250.50;;;25.83;46.17
46614;BME280;32338;50.430;6.806;2023-06-10T12:16:36;68198.94;;;25.41;49.36
46614;BME280;32338;50.430;6.806;2023-06-10T12:19:04;68164.56;;;25.08;50.64
46614;BME280;32338;50.430;6.806;2023-06-10T12:21:32;68199.91;;;25.40;50.18
46614;BME280;32338;50.430;6.806;2023-06-10T12:24:09;68208.06;;;25.50;51.68
46614;BME280;32338;50.430;6.806;2023-06-10T12:26:40;68229.16;;;25.69;50.12
46614;BME280;32338;50.430;6.806;2023-06-10T12:29:21;68274.63;;;26.08;53.28
46614;BME280;32338;50.430;6.806;2023-06-10T12:31:58;68294.19;;;26.28;47.52
46614;BME280;32338;50.430;6.806;2023-06-10T12:34:34;68287.94;;;26.22;44.46
46614;BME280;32338;50.430;6.806;2023-06-10T12:37:01;68292.31;;;26.24;49.03
46614;BME280;32338;50.430;6.806;2023-06-10T12:39:29;68334.56;;;26.62;45.97
46614;BME280;32338;50.430;6.806;2023-06-10T12:41:57;68322.00;;;26.50;45.45
46614;BME280;32338;50.430;6.806;2023-06-10T12:44:33;68302.19;;;26.35;46.24
46614;BME280;32338;50.430;6.806;2023-06-10T12:47:07;68295.56;;;26.24;45.38
46614;BME280;32338;50.430;6.806;2023-06-10T12:49:35;68297.63;;;26.31;47.23
46614;BME280;32338;50.430;6.806;2023-06-10T12:52:01;68326.22;;;26.49;47.54
46614;BME280;32338;50.430;6.806;2023-06-10T12:54:28;68307.41;;;26.32;41.92
46614;BME280;32338;50.430;6.806;2023-06-10T12:56:55;68299.72;;;26.30;43.17
46614;BME280;32338;50.430;6.806;2023-06-10T12:59:21;68307.72;;;26.37;46.86